createdAt,value
2017-07-17T00:01:44.448Z,4.60
2017-07-17T00:04:13.860Z,3.90
2017-07-17T00:06:42.296Z,4.90
2017-07-17T00:09:10.774Z,4.13
2017-07-17T00:11:39.290Z,3.93
2017-07-17T00:14:08.150Z,4.07
2017-07-17T00:16:36.967Z,3.70
2017-07-17T00:19:05.887Z,3.53
2017-07-17T00:21:34.717Z,3.67
2017-07-17T00:24:03.140Z,3.83
2017-07-17T00:26:31.627Z,4.57
2017-07-17T00:29:00.076Z,4.40
2017-07-17T00:31:28.548Z,4.00
2017-07-17T00:33:57.373Z,4.23
2017-07-17T00:36:26.212Z,4.63
2017-07-17T00:38:55.335Z,4.47
2017-07-17T00:41:24.375Z,4.50
2017-07-17T00:43:54.017Z,3.57
2017-07-17T00:46:22.869Z,5.60
2017-07-17T00:48:51.701Z,6.00
2017-07-17T00:51:20.637Z,4.57
2017-07-17T00:53:49.971Z,4.60
2017-07-17T00:56:18.805Z,3.80
2017-07-17T00:58:47.255Z,5.33
2017-07-17T01:01:15.711Z,4.00
2017-07-17T01:03:45.166Z,3.97
2017-07-17T01:06:14.021Z,4.90
2017-07-17T01:08:42.897Z,4.30
2017-07-17T01:11:12.098Z,4.87
2017-07-17T01:13:40.963Z,4.50
2017-07-17T01:16:09.407Z,6.37
2017-07-17T01:18:38.289Z,5.60
2017-07-17T01:21:07.125Z,4.97
2017-07-17T01:23:36.346Z,4.23
2017-07-17T01:26:05.869Z,5.30
2017-07-17T01:28:34.321Z,6.00
2017-07-17T01:31:02.760Z,5.33
2017-07-17T01:33:31.664Z,4.40
2017-07-17T01:36:00.130Z,5.10
2017-07-17T01:38:28.982Z,4.57
2017-07-17T01:40:57.877Z,4.80
2017-07-17T01:43:26.352Z,3.80
2017-07-17T01:45:54.795Z,4.30
2017-07-17T01:48:23.255Z,4.10
2017-07-17T01:50:51.743Z,4.40
2017-07-17T01:53:20.209Z,4.50
2017-07-17T01:55:49.459Z,4.57
2017-07-17T01:58:17.279Z,4.30
2017-07-17T02:00:46.118Z,4.97
2017-07-17T02:03:14.569Z,4.80
2017-07-17T02:05:43.988Z,4.20
2017-07-17T02:08:13.188Z,5.03
2017-07-17T02:10:41.618Z,3.97
2017-07-17T02:13:10.235Z,4.53
2017-07-17T02:15:39.073Z,5.07
2017-07-17T02:18:08.395Z,4.57
2017-07-17T02:20:36.836Z,5.57
2017-07-17T02:23:08.479Z,5.13
2017-07-17T02:25:36.925Z,4.70
2017-07-17T02:28:06.542Z,4.70
2017-07-17T02:30:36.407Z,5.13
2017-07-17T02:33:04.839Z,4.40
2017-07-17T02:35:33.269Z,5.50
2017-07-17T02:38:01.773Z,5.63
2017-07-17T02:40:30.998Z,5.80
2017-07-17T02:42:59.860Z,5.70
2017-07-17T02:45:28.365Z,5.17
2017-07-17T02:47:57.222Z,5.27
2017-07-17T02:50:25.685Z,4.90
2017-07-17T02:52:54.169Z,4.37
2017-07-17T02:55:22.610Z,5.13
2017-07-17T02:57:51.490Z,4.20
2017-07-17T03:00:19.928Z,4.73
2017-07-17T03:02:48.791Z,4.97
2017-07-17T03:05:18.772Z,7.07
2017-07-17T03:07:47.602Z,4.03
2017-07-17T03:10:16.095Z,6.10
2017-07-17T03:12:44.538Z,6.43
2017-07-17T03:15:13.384Z,8.87
2017-07-17T03:17:41.882Z,5.93
2017-07-17T03:20:10.354Z,5.27
2017-07-17T03:22:39.554Z,4.83
2017-07-17T03:25:08.492Z,9.10
2017-07-17T03:27:38.006Z,6.50
2017-07-17T03:30:06.463Z,5.17
2017-07-17T03:32:35.329Z,6.03
2017-07-17T03:35:04.180Z,4.83
2017-07-17T03:37:32.615Z,5.70
2017-07-17T03:40:01.095Z,5.87
2017-07-17T03:42:29.731Z,5.80
2017-07-17T03:44:58.576Z,5.93
2017-07-17T03:47:27.176Z,5.00
2017-07-17T03:49:56.918Z,6.33
2017-07-17T03:52:25.372Z,5.63
2017-07-17T03:54:53.824Z,5.50
2017-07-17T03:57:22.870Z,5.70
2017-07-17T03:59:52.191Z,6.60
2017-07-17T04:02:20.637Z,4.93
2017-07-17T04:04:49.077Z,5.73
2017-07-17T04:07:17.963Z,5.60
2017-07-17T04:09:46.819Z,4.70
2017-07-17T04:12:15.271Z,5.17
2017-07-17T04:14:44.170Z,4.90
2017-07-17T04:17:13.010Z,6.80
2017-07-17T04:19:41.833Z,5.40
2017-07-17T04:22:10.812Z,5.70
2017-07-17T04:24:39.651Z,4.60
2017-07-17T04:27:08.158Z,5.87
2017-07-17T04:29:37.013Z,5.47
2017-07-17T04:32:05.453Z,7.13
2017-07-17T04:34:34.407Z,4.73
2017-07-17T04:37:03.956Z,5.90
2017-07-17T04:39:32.832Z,5.53
2017-07-17T04:42:01.721Z,6.30
2017-07-17T04:44:30.579Z,4.80
2017-07-17T04:46:59.439Z,4.90
2017-07-17T04:49:28.690Z,4.87
2017-07-17T04:51:57.205Z,7.93
2017-07-17T04:54:25.664Z,4.20
2017-07-17T04:56:54.710Z,4.00
2017-07-17T04:59:23.211Z,4.63
2017-07-17T05:01:51.681Z,6.13
2017-07-17T05:04:20.715Z,4.90
2017-07-17T05:06:49.189Z,4.70
2017-07-17T05:09:18.037Z,5.47
2017-07-17T05:11:46.931Z,5.00
2017-07-17T05:14:15.451Z,5.20
2017-07-17T05:16:43.890Z,4.70
2017-07-17T05:19:12.337Z,4.43
2017-07-17T05:21:41.645Z,5.63
2017-07-17T05:24:10.082Z,4.20
2017-07-17T05:26:38.922Z,4.30
2017-07-17T05:29:07.796Z,3.83
2017-07-17T05:31:36.459Z,2.87
2017-07-17T05:34:05.368Z,3.13
2017-07-17T05:36:33.803Z,2.83
2017-07-17T05:39:02.233Z,2.90
2017-07-17T05:41:30.537Z,3.00
2017-07-17T05:43:59.620Z,3.87
2017-07-17T05:46:28.109Z,3.40
2017-07-17T05:48:56.539Z,3.70
2017-07-17T05:51:24.984Z,3.80
2017-07-17T05:53:53.906Z,3.73
2017-07-17T05:56:22.740Z,3.40
2017-07-17T05:58:51.176Z,3.50
2017-07-17T06:01:19.676Z,3.60
2017-07-17T06:03:48.141Z,3.67
2017-07-17T06:06:16.596Z,3.93
2017-07-17T06:08:45.084Z,3.43
2017-07-17T06:11:14.288Z,2.90
2017-07-17T06:13:43.502Z,3.33
2017-07-17T06:16:12.022Z,3.50
2017-07-17T06:18:40.459Z,3.30
2017-07-17T06:21:09.290Z,3.03
2017-07-17T06:23:38.342Z,4.00
2017-07-17T06:26:06.857Z,3.90
2017-07-17T06:28:35.901Z,2.90
2017-07-17T06:31:04.340Z,3.60
2017-07-17T06:33:33.657Z,3.13
2017-07-17T06:36:02.874Z,3.37
2017-07-17T06:38:31.342Z,3.87
2017-07-17T06:41:00.374Z,3.00
2017-07-17T06:43:29.206Z,4.33
2017-07-17T06:45:57.939Z,5.00
2017-07-17T06:48:26.387Z,3.20
2017-07-17T06:50:54.891Z,3.60
2017-07-17T06:53:24.200Z,3.73
2017-07-17T06:55:53.990Z,3.87
2017-07-17T06:58:22.861Z,5.23
2017-07-17T07:00:51.773Z,4.47
2017-07-17T07:03:21.070Z,4.37
2017-07-17T07:05:50.713Z,4.90
2017-07-17T07:08:19.194Z,4.23
2017-07-17T07:10:48.115Z,4.80
2017-07-17T07:13:16.658Z,4.30
2017-07-17T07:15:45.519Z,3.97
2017-07-17T07:18:14.795Z,4.90
2017-07-17T07:20:43.692Z,3.83
2017-07-17T07:23:12.223Z,10.13
2017-07-17T07:25:41.451Z,4.27
2017-07-17T07:28:11.100Z,5.50
2017-07-17T07:30:39.763Z,5.17
2017-07-17T07:33:08.615Z,6.40
2017-07-17T07:35:37.133Z,4.30
2017-07-17T07:38:06.352Z,7.50
2017-07-17T07:40:35.197Z,4.00
2017-07-17T07:43:03.734Z,7.43
2017-07-17T07:45:32.593Z,3.87
2017-07-17T07:48:01.451Z,3.30
2017-07-17T07:50:29.971Z,6.10
2017-07-17T07:52:58.820Z,4.03
2017-07-17T07:55:27.677Z,4.13
2017-07-17T07:57:56.227Z,6.13
2017-07-17T08:00:25.273Z,3.70
2017-07-17T08:02:53.951Z,3.47
2017-07-17T08:05:23.042Z,5.73
2017-07-17T08:07:51.506Z,3.40
2017-07-17T08:10:19.968Z,3.80
2017-07-17T08:12:48.673Z,4.23
2017-07-17T08:15:17.519Z,5.37
2017-07-17T08:17:45.957Z,2.53
2017-07-17T08:20:14.448Z,3.40
2017-07-17T08:22:42.943Z,3.17
2017-07-17T08:25:11.801Z,4.07
2017-07-17T08:27:40.512Z,3.30
2017-07-17T08:30:09.359Z,3.40
2017-07-17T08:32:37.814Z,4.47
2017-07-17T08:35:06.756Z,3.73
2017-07-17T08:37:35.212Z,3.30
2017-07-17T08:40:04.218Z,3.93
2017-07-17T08:42:34.248Z,3.57
2017-07-17T08:45:03.106Z,3.80
2017-07-17T08:47:31.960Z,3.23
2017-07-17T08:50:00.870Z,4.30
2017-07-17T08:52:29.325Z,3.57
2017-07-17T08:54:58.548Z,3.73
2017-07-17T08:57:27.044Z,3.60
2017-07-17T08:59:55.903Z,3.10
2017-07-17T09:02:24.601Z,3.10
2017-07-17T09:04:54.251Z,3.33
2017-07-17T09:07:22.698Z,2.83
2017-07-17T09:09:52.696Z,3.20
2017-07-17T09:12:22.154Z,3.67
2017-07-17T09:14:50.787Z,2.20
2017-07-17T09:17:19.247Z,3.40
2017-07-17T09:19:48.161Z,2.87
2017-07-17T09:22:17.030Z,2.70
2017-07-17T09:24:45.888Z,2.90
2017-07-17T09:27:14.408Z,3.60
2017-07-17T09:29:42.869Z,3.27
2017-07-17T09:32:12.086Z,3.93
2017-07-17T09:34:40.607Z,2.13
2017-07-17T09:37:09.489Z,4.00
2017-07-17T09:39:37.930Z,2.10
2017-07-17T09:42:06.840Z,2.40
2017-07-17T09:44:35.696Z,3.03
2017-07-17T09:47:04.542Z,3.23
2017-07-17T09:49:33.057Z,3.57
2017-07-17T09:52:02.215Z,2.30
2017-07-17T09:54:30.834Z,3.27
2017-07-17T09:56:59.757Z,3.30
2017-07-17T09:59:28.587Z,3.30
2017-07-17T10:01:57.648Z,3.50
2017-07-17T10:04:27.709Z,3.07
2017-07-17T10:06:56.953Z,3.03
2017-07-17T10:09:26.900Z,2.40
2017-07-17T10:11:55.374Z,4.37
2017-07-17T10:14:23.850Z,2.90
2017-07-17T10:16:52.730Z,2.87
2017-07-17T10:19:21.180Z,3.67
2017-07-17T10:21:49.665Z,3.47
2017-07-17T10:24:18.160Z,2.53
2017-07-17T10:26:47.561Z,2.73
2017-07-17T10:29:15.843Z,2.73
2017-07-17T10:31:44.354Z,2.30
2017-07-17T10:34:13.806Z,2.73
2017-07-17T10:36:42.606Z,2.30
2017-07-17T10:39:11.440Z,4.27
2017-07-17T10:41:40.733Z,2.67
2017-07-17T10:44:09.841Z,3.83
2017-07-17T10:46:38.304Z,1.70
2017-07-17T10:49:07.631Z,3.00
2017-07-17T10:51:36.134Z,1.80
2017-07-17T10:54:05.005Z,3.13
2017-07-17T10:56:33.517Z,2.30
2017-07-17T10:59:02.003Z,4.20
2017-07-17T11:01:30.849Z,3.27
2017-07-17T11:03:59.357Z,4.13
2017-07-17T11:06:28.761Z,2.77
2017-07-17T11:08:58.217Z,3.37
2017-07-17T11:11:27.078Z,3.20
2017-07-17T11:13:56.510Z,2.00
2017-07-17T11:16:25.739Z,3.40
2017-07-17T11:18:55.024Z,2.23
2017-07-17T11:21:23.499Z,2.50
2017-07-17T11:23:52.644Z,1.93
2017-07-17T11:26:21.104Z,2.13
2017-07-17T11:28:49.970Z,2.60
2017-07-17T11:31:19.272Z,4.70
2017-07-17T11:33:48.146Z,2.17
2017-07-17T11:36:17.000Z,2.40
2017-07-17T11:38:45.512Z,3.23
2017-07-17T11:41:13.948Z,2.57
2017-07-17T11:43:42.395Z,2.00
2017-07-17T11:56:28.373Z,2.07
2017-07-17T11:58:57.283Z,2.53
2017-07-17T12:01:26.131Z,2.90
2017-07-17T12:03:55.365Z,2.10
2017-07-17T12:06:24.623Z,2.53
2017-07-17T12:08:53.848Z,2.67
2017-07-17T12:11:22.680Z,4.10
2017-07-17T12:13:51.185Z,2.87
2017-07-17T12:16:20.040Z,2.57
2017-07-17T12:18:48.559Z,1.90
2017-07-17T12:21:18.101Z,2.90
2017-07-17T12:23:46.981Z,3.00
2017-07-17T12:26:15.840Z,3.70
2017-07-17T12:28:44.708Z,2.37
2017-07-17T12:31:13.604Z,2.13
2017-07-17T12:33:42.271Z,3.20
2017-07-17T12:36:10.756Z,2.30
2017-07-17T12:38:39.266Z,2.90
2017-07-17T12:41:08.123Z,3.47
2017-07-17T12:43:36.573Z,2.63
2017-07-17T12:46:05.472Z,2.93
2017-07-17T12:48:34.345Z,2.90
2017-07-17T12:51:03.195Z,2.40
2017-07-17T12:53:32.151Z,2.93
2017-07-17T12:56:01.211Z,2.47
2017-07-17T12:58:30.426Z,2.60
2017-07-17T13:00:59.330Z,3.10
2017-07-17T13:03:28.187Z,3.50
2017-07-17T13:05:57.483Z,3.90
2017-07-17T13:08:26.482Z,2.80
2017-07-17T13:10:55.329Z,2.60
2017-07-17T13:13:23.842Z,2.60
2017-07-17T13:15:52.301Z,2.60
2017-07-17T13:18:21.169Z,2.80
2017-07-17T13:20:50.546Z,2.20
2017-07-17T13:23:19.390Z,2.90
2017-07-17T13:25:47.859Z,2.83
2017-07-17T13:28:16.769Z,3.03
2017-07-17T13:30:45.600Z,1.93
2017-07-17T13:33:14.819Z,2.00
2017-07-17T13:35:43.748Z,3.13
2017-07-17T13:38:12.962Z,3.53
2017-07-17T13:40:41.461Z,2.83
2017-07-17T13:43:10.367Z,2.90
2017-07-17T13:45:38.812Z,2.60
2017-07-17T13:48:07.657Z,2.63
2017-07-17T13:50:36.159Z,2.57
2017-07-17T13:53:04.668Z,2.20
2017-07-17T13:55:33.944Z,3.10
2017-07-17T13:58:02.797Z,3.20
2017-07-17T14:00:31.246Z,2.77
2017-07-17T14:02:59.783Z,2.60
2017-07-17T14:05:28.649Z,2.20
2017-07-17T14:07:58.070Z,2.73
2017-07-17T14:10:27.240Z,2.10
2017-07-17T14:12:56.104Z,2.60
2017-07-17T14:15:25.312Z,4.63
2017-07-17T14:17:54.254Z,2.90
2017-07-17T14:20:22.740Z,2.87
2017-07-17T14:22:51.381Z,2.60
2017-07-17T14:25:20.304Z,3.67
2017-07-17T14:27:49.161Z,2.70
2017-07-17T14:30:17.630Z,2.30
2017-07-17T14:32:46.156Z,2.83
2017-07-17T14:35:15.014Z,2.70
2017-07-17T14:37:43.486Z,2.10
2017-07-17T14:40:12.007Z,3.97
2017-07-17T14:42:41.704Z,1.80
2017-07-17T14:45:10.572Z,4.73
2017-07-17T14:47:39.088Z,2.40
2017-07-17T14:50:07.543Z,3.20
2017-07-17T14:52:36.242Z,2.47
2017-07-17T14:55:05.881Z,4.83
2017-07-17T14:57:34.744Z,2.67
2017-07-17T15:00:03.264Z,4.70
2017-07-17T15:02:32.771Z,3.37
2017-07-17T15:05:01.298Z,2.37
2017-07-17T15:07:29.765Z,2.70
2017-07-17T15:10:00.305Z,3.70
2017-07-17T15:12:28.781Z,3.00
2017-07-17T15:14:57.625Z,3.60
2017-07-17T15:17:26.139Z,3.50
2017-07-17T15:19:54.998Z,3.67
2017-07-17T15:22:23.894Z,2.60
2017-07-17T15:24:52.745Z,3.07
2017-07-17T15:27:22.545Z,2.60
2017-07-17T15:29:51.475Z,2.83
2017-07-17T15:32:20.765Z,3.97
2017-07-17T15:34:49.630Z,3.43
2017-07-17T15:37:18.469Z,2.00
2017-07-17T15:39:47.375Z,3.63
2017-07-17T15:42:15.903Z,3.90
2017-07-17T15:44:45.088Z,3.63
2017-07-17T15:47:13.571Z,3.07
2017-07-17T15:49:42.480Z,2.60
2017-07-17T15:52:11.704Z,2.83
2017-07-17T15:54:40.928Z,3.60
2017-07-17T15:57:09.789Z,4.40
2017-07-17T15:59:38.641Z,2.20
2017-07-17T16:02:07.550Z,2.87
2017-07-17T16:04:36.486Z,2.60
2017-07-17T16:07:05.590Z,2.57
2017-07-17T16:09:34.819Z,3.73
2017-07-17T16:12:03.090Z,1.90
2017-07-17T16:14:32.381Z,3.80
2017-07-17T16:17:01.607Z,2.40
2017-07-17T16:19:31.893Z,3.27
2017-07-17T16:22:00.764Z,3.03
2017-07-17T16:24:29.868Z,3.13
2017-07-17T16:26:58.713Z,2.40
2017-07-17T16:29:27.601Z,3.97
2017-07-17T16:31:56.514Z,3.30
2017-07-17T16:34:25.369Z,3.77
2017-07-17T16:36:54.637Z,2.90
2017-07-17T16:39:23.284Z,3.10
2017-07-17T16:41:51.735Z,4.10
2017-07-17T16:44:20.632Z,2.30
2017-07-17T16:46:49.071Z,3.30
2017-07-17T16:49:18.678Z,2.73
2017-07-17T16:51:47.510Z,2.47
2017-07-17T16:54:16.360Z,2.77
2017-07-17T16:56:45.263Z,2.53
2017-07-17T16:59:14.491Z,3.20
2017-07-17T17:01:43.391Z,3.03
2017-07-17T17:04:12.220Z,2.43
2017-07-17T17:06:40.705Z,3.30
2017-07-17T17:09:09.620Z,3.70
2017-07-17T17:11:38.468Z,2.93
2017-07-17T17:14:06.917Z,2.43
2017-07-17T17:16:35.432Z,3.87
2017-07-17T17:19:03.884Z,3.57
2017-07-17T17:21:32.344Z,3.43
2017-07-17T17:24:02.162Z,2.63
2017-07-17T17:26:30.615Z,2.80
2017-07-17T17:28:59.078Z,2.70
2017-07-17T17:31:29.098Z,2.70
2017-07-17T17:33:57.940Z,3.10
2017-07-17T17:36:26.817Z,3.40
2017-07-17T17:38:56.095Z,5.20
2017-07-17T17:41:24.949Z,3.80
2017-07-17T17:43:53.788Z,2.53
2017-07-17T17:46:22.706Z,3.07
2017-07-17T17:48:51.164Z,3.47
2017-07-17T17:51:20.028Z,2.77
2017-07-17T17:53:48.929Z,2.90
2017-07-17T17:56:17.758Z,3.77
2017-07-17T17:58:46.221Z,2.83
2017-07-17T18:01:15.484Z,3.07
2017-07-17T18:03:44.348Z,3.33
2017-07-17T18:06:14.347Z,3.60
2017-07-17T18:08:43.190Z,4.00
2017-07-17T18:11:11.688Z,4.10
2017-07-17T18:13:40.498Z,3.63
2017-07-17T18:16:09.143Z,4.20
2017-07-17T18:18:37.611Z,3.00
2017-07-17T18:21:06.102Z,3.63
2017-07-17T18:23:34.560Z,4.80
2017-07-17T18:26:03.012Z,6.83
2017-07-17T18:28:31.540Z,3.07
2017-07-17T18:31:00.413Z,5.47
2017-07-17T18:33:29.076Z,3.53
2017-07-17T18:35:57.957Z,3.50
2017-07-17T18:38:26.389Z,2.50
2017-07-17T18:40:54.841Z,3.43
2017-07-17T18:43:23.753Z,3.27
2017-07-17T18:45:52.190Z,3.47
2017-07-17T18:48:21.013Z,3.50
2017-07-17T18:50:49.550Z,3.10
2017-07-17T18:53:18.113Z,4.00
2017-07-17T18:55:46.968Z,4.30
2017-07-17T18:58:15.493Z,3.93
2017-07-17T19:00:44.362Z,3.73
2017-07-17T19:03:13.577Z,4.13
2017-07-17T19:05:42.844Z,3.17
2017-07-17T19:08:11.716Z,3.97
2017-07-17T19:10:40.181Z,3.10
2017-07-17T19:13:08.656Z,3.40
2017-07-17T19:15:37.534Z,4.20
2017-07-17T19:18:05.991Z,4.33
2017-07-17T19:20:34.552Z,3.60
2017-07-17T19:23:03.527Z,3.37
2017-07-17T19:25:32.384Z,3.93
2017-07-17T19:28:01.265Z,3.93
2017-07-17T19:30:30.683Z,3.03
2017-07-17T19:32:59.743Z,3.50
2017-07-17T19:35:28.202Z,6.10
2017-07-17T19:37:56.672Z,2.80
2017-07-17T19:40:25.221Z,3.60
2017-07-17T19:42:54.159Z,3.50
2017-07-17T19:45:23.572Z,4.80
2017-07-17T19:47:53.159Z,3.63
2017-07-17T19:50:22.021Z,4.60
2017-07-17T19:52:50.501Z,3.53
2017-07-17T19:55:19.527Z,5.57
2017-07-17T19:57:48.438Z,3.73
2017-07-17T20:00:16.883Z,4.73
2017-07-17T20:02:45.831Z,4.33
2017-07-17T20:05:14.293Z,4.73
2017-07-17T20:07:42.756Z,3.67
2017-07-17T20:10:12.532Z,3.57
2017-07-17T20:12:41.384Z,4.10
2017-07-17T20:15:10.799Z,4.13
2017-07-17T20:17:39.261Z,5.47
2017-07-17T20:20:08.853Z,3.73
2017-07-17T20:22:37.322Z,4.30
2017-07-17T20:25:05.911Z,5.70
2017-07-17T20:27:35.577Z,5.40
2017-07-17T20:30:04.633Z,5.93
2017-07-17T20:32:33.099Z,6.77
2017-07-17T20:35:02.000Z,4.47
2017-07-17T20:37:30.994Z,5.30
2017-07-17T20:39:59.848Z,4.70
2017-07-17T20:42:29.131Z,4.50
2017-07-17T20:44:57.988Z,5.10
2017-07-17T20:47:26.906Z,8.20
2017-07-17T20:49:55.777Z,5.30
2017-07-17T20:52:24.288Z,5.67
2017-07-17T20:54:52.787Z,4.43
2017-07-17T20:57:21.705Z,5.07
2017-07-17T20:59:50.614Z,4.20
2017-07-17T21:02:19.280Z,3.93
2017-07-17T21:04:48.213Z,4.50
2017-07-17T21:07:17.161Z,4.23
2017-07-17T21:09:45.632Z,5.17
2017-07-17T21:12:14.485Z,4.37
2017-07-17T21:14:43.417Z,4.00
2017-07-17T21:17:12.267Z,7.87
2017-07-17T21:19:41.218Z,5.20
2017-07-17T21:22:09.689Z,5.17
2017-07-17T21:24:38.560Z,5.17
2017-07-17T21:27:07.830Z,7.07
2017-07-17T21:29:37.144Z,5.90
2017-07-17T21:32:06.276Z,8.10
2017-07-17T21:34:35.534Z,4.73
2017-07-17T21:37:04.431Z,6.07
2017-07-17T21:39:33.828Z,6.30
2017-07-17T21:42:02.741Z,6.03
2017-07-17T21:44:31.244Z,5.30
2017-07-17T21:47:00.150Z,4.73
2017-07-17T21:49:29.367Z,3.73
2017-07-17T21:51:57.926Z,7.00
2017-07-17T21:54:26.826Z,5.40
2017-07-17T21:56:55.676Z,5.47
2017-07-17T21:59:25.285Z,4.47
2017-07-17T22:01:54.140Z,7.37
2017-07-17T22:04:23.365Z,5.60
2017-07-17T22:06:52.605Z,6.10
2017-07-17T22:09:21.052Z,5.10
2017-07-17T22:11:49.982Z,6.93
2017-07-17T22:14:18.429Z,5.37
2017-07-17T22:16:47.309Z,4.50
2017-07-17T22:19:16.204Z,5.80
2017-07-17T22:21:45.176Z,5.10
2017-07-17T22:24:14.027Z,5.60
2017-07-17T22:26:43.495Z,10.30
2017-07-17T22:29:12.342Z,5.40
2017-07-17T22:31:41.209Z,5.63
2017-07-17T22:34:09.717Z,5.97
2017-07-17T22:36:38.560Z,6.50
2017-07-17T22:39:07.040Z,6.20
2017-07-17T22:41:35.925Z,5.77
2017-07-17T22:44:04.777Z,8.03
2017-07-17T22:46:33.666Z,6.53
2017-07-17T22:49:02.527Z,4.93
2017-07-17T22:51:31.458Z,5.60
2017-07-17T22:54:00.730Z,5.87
2017-07-17T22:56:29.226Z,5.20
2017-07-17T22:58:57.723Z,5.53
2017-07-17T23:01:26.776Z,5.67
2017-07-17T23:03:56.198Z,6.50
2017-07-17T23:06:25.459Z,5.80
2017-07-17T23:08:54.331Z,5.20
2017-07-17T23:11:22.807Z,5.40
2017-07-17T23:13:51.713Z,5.20
2017-07-17T23:16:20.164Z,5.10
2017-07-17T23:18:49.023Z,6.20
2017-07-17T23:21:17.536Z,6.83
2017-07-17T23:23:47.151Z,5.87
2017-07-17T23:26:16.047Z,6.27
2017-07-17T23:28:44.914Z,6.43
2017-07-17T23:31:13.805Z,4.63
2017-07-17T23:33:43.010Z,8.73
2017-07-17T23:36:12.651Z,5.63
2017-07-17T23:38:41.502Z,6.27
2017-07-17T23:41:10.533Z,5.87
2017-07-17T23:43:39.443Z,6.40
2017-07-17T23:46:09.619Z,7.13
2017-07-17T23:48:38.466Z,6.77
2017-07-17T23:51:07.344Z,8.43
2017-07-17T23:53:36.567Z,7.67
2017-07-17T23:56:05.032Z,6.80
2017-07-17T23:58:34.510Z,7.30
